createdAt,value
2019-02-19T00:00:05.203Z,10.63
2019-02-19T00:02:33.271Z,7.97
2019-02-19T00:04:59.419Z,7.12
2019-02-19T00:07:25.716Z,7.87
2019-02-19T00:09:51.875Z,6.17
2019-02-19T00:12:18.048Z,7.40
2019-02-19T00:14:44.239Z,6.42
2019-02-19T00:17:10.400Z,7.22
2019-02-19T00:19:36.615Z,8.25
2019-02-19T00:22:03.264Z,7.78
2019-02-19T00:24:29.419Z,9.20
2019-02-19T00:26:55.611Z,9.78
2019-02-19T00:29:22.776Z,7.67
2019-02-19T00:31:48.936Z,9.40
2019-02-19T00:34:15.109Z,10.05
2019-02-19T00:36:41.307Z,8.30
2019-02-19T00:39:07.474Z,6.90
2019-02-19T00:41:33.928Z,11.73
2019-02-19T00:44:00.112Z,8.35
2019-02-19T00:46:26.255Z,6.90
2019-02-19T00:48:52.427Z,9.90
2019-02-19T00:51:18.621Z,8.05
2019-02-19T00:53:44.832Z,9.10
2019-02-19T00:56:10.999Z,9.05
2019-02-19T00:58:37.171Z,7.58
2019-02-19T01:01:03.323Z,6.37
2019-02-19T01:03:29.512Z,8.73
2019-02-19T01:05:55.687Z,6.83
2019-02-19T01:08:22.175Z,7.33
2019-02-19T01:10:48.339Z,7.92
2019-02-19T01:13:14.493Z,7.97
2019-02-19T01:15:40.663Z,7.92
2019-02-19T01:18:06.817Z,7.42
2019-02-19T01:20:33.011Z,6.72
2019-02-19T01:22:59.164Z,6.58
2019-02-19T01:25:25.324Z,7.42
2019-02-19T01:27:51.499Z,9.33
2019-02-19T01:30:17.650Z,9.55
2019-02-19T01:32:43.820Z,7.47
2019-02-19T01:35:09.989Z,6.15
2019-02-19T01:37:36.163Z,9.25
2019-02-19T01:40:04.523Z,6.95
2019-02-19T01:42:30.700Z,7.45
2019-02-19T01:44:56.855Z,7.53
2019-02-19T01:47:25.050Z,6.70
2019-02-19T01:49:51.306Z,6.95
2019-02-19T01:52:17.488Z,7.28
2019-02-19T01:54:43.639Z,8.25
2019-02-19T01:57:09.808Z,8.30
2019-02-19T01:59:35.965Z,8.33
2019-02-19T02:02:02.123Z,8.75
2019-02-19T02:04:28.320Z,8.00
2019-02-19T02:06:54.483Z,6.20
2019-02-19T02:09:20.669Z,8.43
2019-02-19T02:11:46.823Z,7.60
2019-02-19T02:14:13.020Z,10.93
2019-02-19T02:16:39.168Z,8.75
2019-02-19T02:19:05.329Z,8.23
2019-02-19T02:21:31.536Z,7.42
2019-02-19T02:23:57.699Z,8.60
2019-02-19T02:26:23.839Z,7.22
2019-02-19T02:28:50.007Z,10.93
2019-02-19T02:31:16.165Z,7.45
2019-02-19T02:33:42.458Z,8.38
2019-02-19T02:36:08.724Z,9.65
2019-02-19T02:38:34.925Z,7.47
2019-02-19T02:41:02.009Z,8.43
2019-02-19T02:43:28.208Z,8.18
2019-02-19T02:45:54.367Z,9.88
2019-02-19T02:48:20.693Z,8.83
2019-02-19T02:50:46.840Z,10.23
2019-02-19T02:53:13.004Z,9.33
2019-02-19T02:55:39.204Z,10.18
2019-02-19T02:58:05.359Z,8.68
2019-02-19T03:00:31.519Z,11.00
2019-02-19T03:02:57.707Z,10.25
2019-02-19T03:05:25.355Z,10.18
2019-02-19T03:07:53.643Z,13.15
2019-02-19T03:10:19.819Z,9.23
2019-02-19T03:12:45.991Z,13.62
2019-02-19T03:15:12.609Z,10.45
2019-02-19T03:17:38.785Z,10.90
2019-02-19T03:20:06.042Z,11.05
2019-02-19T03:22:32.210Z,9.90
2019-02-19T03:25:00.371Z,10.63
2019-02-19T03:27:26.818Z,10.23
2019-02-19T03:29:52.983Z,8.98
2019-02-19T03:32:19.242Z,10.88
2019-02-19T03:34:45.434Z,11.22
2019-02-19T03:37:11.604Z,10.63
2019-02-19T03:39:37.772Z,8.93
2019-02-19T03:42:03.954Z,8.13
2019-02-19T03:44:30.144Z,10.08
2019-02-19T03:46:56.316Z,10.82
2019-02-19T03:49:22.472Z,12.58
2019-02-19T03:51:48.643Z,15.48
2019-02-19T03:54:14.800Z,10.85
2019-02-19T03:56:40.994Z,13.03
2019-02-19T03:59:07.592Z,12.18
2019-02-19T04:01:33.754Z,10.05
2019-02-19T04:04:00.032Z,8.23
2019-02-19T04:06:26.191Z,12.13
2019-02-19T04:08:52.340Z,11.10
2019-02-19T04:11:18.531Z,11.28
2019-02-19T04:13:44.709Z,12.73
2019-02-19T04:16:10.864Z,12.33
2019-02-19T04:18:40.194Z,11.03
2019-02-19T04:21:06.425Z,13.00
2019-02-19T04:23:32.564Z,13.70
2019-02-19T04:25:58.779Z,10.93
2019-02-19T04:28:25.035Z,10.48
2019-02-19T04:30:51.213Z,11.73
2019-02-19T04:33:17.437Z,11.78
2019-02-19T04:35:43.616Z,13.85
2019-02-19T04:38:09.804Z,11.08
2019-02-19T04:40:35.972Z,10.60
2019-02-19T04:43:02.125Z,12.28
2019-02-19T04:45:28.311Z,17.70
2019-02-19T04:47:56.052Z,14.03
2019-02-19T04:50:22.208Z,16.37
2019-02-19T04:52:48.429Z,17.90
2019-02-19T04:55:14.583Z,18.42
2019-02-19T04:57:40.764Z,13.95
2019-02-19T05:00:10.245Z,14.18
2019-02-19T05:02:36.392Z,16.00
2019-02-19T05:05:03.793Z,16.90
2019-02-19T05:07:29.948Z,16.12
2019-02-19T05:09:56.104Z,16.10
2019-02-19T05:12:22.304Z,15.68
2019-02-19T05:14:48.464Z,17.50
2019-02-19T05:17:16.339Z,13.75
2019-02-19T05:19:42.697Z,17.20
2019-02-19T05:22:08.855Z,19.65
2019-02-19T05:24:35.029Z,15.95
2019-02-19T05:27:01.188Z,16.80
2019-02-19T05:29:27.357Z,19.57
2019-02-19T05:31:53.511Z,22.10
2019-02-19T05:34:19.681Z,16.97
2019-02-19T05:36:45.837Z,19.02
2019-02-19T05:39:12.004Z,16.55
2019-02-19T05:41:38.171Z,18.92
2019-02-19T05:44:04.372Z,16.93
2019-02-19T05:46:30.605Z,15.50
2019-02-19T05:48:56.839Z,16.30
2019-02-19T05:51:23.183Z,19.20
2019-02-19T05:53:49.332Z,16.90
2019-02-19T05:56:15.524Z,17.77
2019-02-19T05:58:41.678Z,18.10
2019-02-19T06:01:07.853Z,14.45
2019-02-19T06:03:34.004Z,16.97
2019-02-19T06:06:00.177Z,19.40
2019-02-19T06:08:26.326Z,17.32
2019-02-19T06:10:52.487Z,17.32
2019-02-19T06:13:18.647Z,15.18
2019-02-19T06:15:44.808Z,16.73
2019-02-19T06:18:11.043Z,14.63
2019-02-19T06:20:37.397Z,18.52
2019-02-19T06:23:03.595Z,14.43
2019-02-19T06:25:29.826Z,14.73
2019-02-19T06:27:56.176Z,20.85
2019-02-19T06:30:22.383Z,17.25
2019-02-19T06:32:48.564Z,17.42
2019-02-19T06:35:14.715Z,20.88
2019-02-19T06:37:40.883Z,14.98
2019-02-19T06:40:24.465Z,16.82
2019-02-19T06:45:16.682Z,17.05
2019-02-19T06:47:42.839Z,21.45
2019-02-19T06:50:09.027Z,20.23
2019-02-19T06:52:35.183Z,16.02
2019-02-19T06:55:01.352Z,17.05
2019-02-19T06:57:27.503Z,20.70
2019-02-19T06:59:53.699Z,16.80
2019-02-19T07:02:26.160Z,18.50
2019-02-19T07:04:52.624Z,22.87
2019-02-19T07:07:18.796Z,20.57
2019-02-19T07:09:44.959Z,18.25
2019-02-19T07:12:11.136Z,19.12
2019-02-19T07:14:37.292Z,20.55
2019-02-19T07:17:03.464Z,19.05
2019-02-19T07:19:29.660Z,19.95
2019-02-19T07:21:55.811Z,20.90
2019-02-19T07:24:21.979Z,20.45
2019-02-19T07:26:48.127Z,18.20
2019-02-19T07:29:15.125Z,18.42
2019-02-19T07:31:41.419Z,16.27
2019-02-19T07:34:07.603Z,19.27
2019-02-19T07:36:33.777Z,19.70
2019-02-19T07:38:59.951Z,15.18
2019-02-19T07:41:26.149Z,19.57
2019-02-19T07:43:54.164Z,19.40
2019-02-19T07:46:20.536Z,18.17
2019-02-19T07:48:46.707Z,19.50
2019-02-19T07:51:12.883Z,19.07
2019-02-19T07:53:39.039Z,18.40
2019-02-19T07:56:05.224Z,19.23
2019-02-19T07:58:31.403Z,16.48
2019-02-19T08:00:57.626Z,17.48
2019-02-19T08:03:23.783Z,15.38
2019-02-19T08:05:49.959Z,14.50
2019-02-19T08:08:16.125Z,16.87
2019-02-19T08:10:42.313Z,16.32
2019-02-19T08:13:08.637Z,16.70
2019-02-19T08:15:34.788Z,17.65
2019-02-19T08:18:00.948Z,17.00
2019-02-19T08:20:27.130Z,11.93
2019-02-19T08:22:53.312Z,14.98
2019-02-19T08:25:19.464Z,12.10
2019-02-19T08:27:45.741Z,12.90
2019-02-19T08:30:11.889Z,13.28
2019-02-19T08:32:38.072Z,9.33
2019-02-19T08:35:05.502Z,12.37
2019-02-19T08:37:31.663Z,12.90
2019-02-19T08:40:00.759Z,10.35
2019-02-19T08:42:27.217Z,14.15
2019-02-19T08:44:53.399Z,11.28
2019-02-19T08:47:19.548Z,10.23
2019-02-19T08:49:45.736Z,10.45
2019-02-19T08:52:11.896Z,10.85
2019-02-19T08:54:38.068Z,11.40
2019-02-19T08:57:04.253Z,10.05
2019-02-19T08:59:30.418Z,10.15
2019-02-19T09:01:56.591Z,9.83
2019-02-19T09:04:23.042Z,10.60
2019-02-19T09:06:49.226Z,9.30
2019-02-19T09:09:15.400Z,10.43
2019-02-19T09:11:41.632Z,9.48
2019-02-19T09:14:07.807Z,11.85
2019-02-19T09:16:33.962Z,9.23
2019-02-19T09:19:00.135Z,9.73
2019-02-19T09:21:26.280Z,9.98
2019-02-19T09:23:52.461Z,10.65
2019-02-19T09:26:19.618Z,9.40
2019-02-19T09:28:45.793Z,10.03
2019-02-19T09:31:12.075Z,6.83
2019-02-19T09:33:38.312Z,14.43
2019-02-19T09:36:04.468Z,8.10
2019-02-19T09:38:30.631Z,7.83
2019-02-19T09:40:56.807Z,13.20
2019-02-19T09:43:22.972Z,8.00
2019-02-19T09:45:49.146Z,8.10
2019-02-19T09:48:15.322Z,8.43
2019-02-19T09:50:42.604Z,9.35
2019-02-19T09:53:08.752Z,8.25
2019-02-19T09:55:34.951Z,9.45
2019-02-19T09:58:01.113Z,7.60
2019-02-19T10:00:27.326Z,7.05
2019-02-19T10:02:53.473Z,10.03
2019-02-19T10:05:19.954Z,8.63
2019-02-19T10:07:46.148Z,8.83
2019-02-19T10:10:16.128Z,9.18
2019-02-19T10:12:42.372Z,11.93
2019-02-19T10:15:10.941Z,7.85
2019-02-19T10:17:37.112Z,6.12
2019-02-19T10:20:05.696Z,7.72
2019-02-19T10:22:31.857Z,6.50
2019-02-19T10:25:00.944Z,8.78
2019-02-19T10:27:27.156Z,9.10
2019-02-19T10:29:53.399Z,8.78
2019-02-19T10:32:19.581Z,6.35
2019-02-19T10:34:46.113Z,6.37
2019-02-19T10:37:12.331Z,8.90
2019-02-19T10:39:38.688Z,6.65
2019-02-19T10:42:04.864Z,8.25
2019-02-19T10:44:31.149Z,12.73
2019-02-19T10:46:57.364Z,7.05
2019-02-19T10:49:24.639Z,6.50
2019-02-19T10:51:50.824Z,7.95
2019-02-19T10:54:17.169Z,7.90
2019-02-19T10:56:43.644Z,7.05
2019-02-19T10:59:09.807Z,6.92
2019-02-19T11:01:36.273Z,7.40
2019-02-19T11:04:02.457Z,8.05
2019-02-19T11:06:29.025Z,7.12
2019-02-19T11:08:55.204Z,8.70
2019-02-19T11:11:21.390Z,7.12
2019-02-19T11:13:47.579Z,5.10
2019-02-19T11:16:13.789Z,7.78
2019-02-19T11:18:39.982Z,7.20
2019-02-19T11:21:06.147Z,5.95
2019-02-19T11:23:33.708Z,8.25
2019-02-19T11:26:00.094Z,8.60
2019-02-19T11:28:26.260Z,7.90
2019-02-19T11:30:52.457Z,9.35
2019-02-19T11:33:18.635Z,8.18
2019-02-19T11:35:44.830Z,8.08
2019-02-19T11:38:11.055Z,11.57
2019-02-19T11:40:37.245Z,5.87
2019-02-19T11:43:03.404Z,7.12
2019-02-19T11:45:29.608Z,10.95
2019-02-19T11:47:55.824Z,8.25
2019-02-19T11:50:21.997Z,12.63
2019-02-19T11:52:48.291Z,7.60
2019-02-19T11:55:16.887Z,8.78
2019-02-19T11:57:43.084Z,8.53
2019-02-19T12:00:13.461Z,9.00
2019-02-19T12:02:39.728Z,5.58
2019-02-19T12:05:07.005Z,6.72
2019-02-19T12:07:33.376Z,11.55
2019-02-19T12:09:59.549Z,7.90
2019-02-19T12:12:25.740Z,8.13
2019-02-19T12:14:51.916Z,7.58
2019-02-19T12:17:18.137Z,6.53
2019-02-19T12:19:45.325Z,7.83
2019-02-19T12:22:12.625Z,11.15
2019-02-19T12:24:39.478Z,8.50
2019-02-19T12:27:08.382Z,6.97
2019-02-19T12:29:33.748Z,6.50
2019-02-19T12:31:59.997Z,7.75
2019-02-19T12:34:26.195Z,7.87
2019-02-19T12:36:52.357Z,6.05
2019-02-19T12:39:18.900Z,9.85
2019-02-19T12:41:45.118Z,6.37
2019-02-19T12:44:11.289Z,8.95
2019-02-19T12:46:37.512Z,7.45
2019-02-19T12:49:03.797Z,6.10
2019-02-19T12:51:30.001Z,8.48
2019-02-19T12:53:56.352Z,7.75
2019-02-19T12:56:22.526Z,6.30
2019-02-19T12:58:48.704Z,6.87
2019-02-19T13:01:16.107Z,9.10
2019-02-19T13:03:42.509Z,5.05
2019-02-19T13:06:11.173Z,5.83
2019-02-19T13:08:37.372Z,8.80
2019-02-19T13:11:03.585Z,4.87
2019-02-19T13:13:31.657Z,9.30
2019-02-19T13:15:57.889Z,7.58
2019-02-19T13:18:24.060Z,5.05
2019-02-19T13:20:50.237Z,6.17
2019-02-19T13:23:17.250Z,5.62
2019-02-19T13:25:43.456Z,7.17
2019-02-19T13:28:09.617Z,5.67
2019-02-19T13:30:35.819Z,8.73
2019-02-19T13:33:01.985Z,5.20
2019-02-19T13:35:28.147Z,5.62
2019-02-19T13:37:54.327Z,5.97
2019-02-19T13:40:20.727Z,4.40
2019-02-19T13:42:46.964Z,6.40
2019-02-19T13:45:13.841Z,8.43
2019-02-19T13:47:40.160Z,8.53
2019-02-19T13:50:14.061Z,6.65
2019-02-19T13:52:46.696Z,4.25
2019-02-19T13:55:16.221Z,7.30
2019-02-19T13:57:43.716Z,5.33
2019-02-19T14:00:12.701Z,4.25
2019-02-19T14:02:39.263Z,8.53
2019-02-19T14:05:08.522Z,4.30
2019-02-19T14:07:36.643Z,9.20
2019-02-19T14:10:07.665Z,5.00
2019-02-19T14:12:34.043Z,6.85
2019-02-19T14:15:39.872Z,7.47
2019-02-19T14:18:07.985Z,5.22
2019-02-19T14:20:47.842Z,5.67
2019-02-19T14:23:25.077Z,6.10
2019-02-19T14:25:53.267Z,5.53
2019-02-19T14:28:21.348Z,6.05
2019-02-19T14:30:58.533Z,6.05
2019-02-19T14:33:32.462Z,6.90
2019-02-19T14:36:00.569Z,6.25
2019-02-19T14:38:31.396Z,6.33
2019-02-19T14:40:59.484Z,8.25
2019-02-19T14:43:36.681Z,6.95
2019-02-19T14:46:10.764Z,8.10
2019-02-19T14:48:38.880Z,5.28
2019-02-19T14:51:22.496Z,5.17
2019-02-19T14:53:56.741Z,8.40
2019-02-19T14:56:27.372Z,7.25
2019-02-19T14:59:01.052Z,5.33
2019-02-19T15:01:44.477Z,7.47
2019-02-19T15:04:24.435Z,7.55
2019-02-19T15:07:01.358Z,7.55
2019-02-19T15:09:29.439Z,8.53
2019-02-19T15:12:00.105Z,13.60
2019-02-19T15:14:40.053Z,8.58
2019-02-19T15:17:16.730Z,6.17
2019-02-19T15:19:47.659Z,5.92
2019-02-19T15:22:18.532Z,6.12
2019-02-19T15:24:46.629Z,9.25
2019-02-19T15:27:29.960Z,9.80
2019-02-19T15:30:03.841Z,7.15
2019-02-19T15:32:48.489Z,9.63
2019-02-19T15:35:34.821Z,9.30
2019-02-19T15:38:08.713Z,9.88
2019-02-19T15:40:36.942Z,6.80
2019-02-19T15:43:21.719Z,8.33
2019-02-19T15:46:08.061Z,6.20
2019-02-19T15:48:48.255Z,7.22
2019-02-19T15:51:22.409Z,12.43
2019-02-19T15:53:56.340Z,10.28
2019-02-19T15:56:24.442Z,8.08
2019-02-19T15:59:09.212Z,14.05
2019-02-19T16:01:43.355Z,6.05
2019-02-19T16:04:11.533Z,8.75
2019-02-19T16:06:51.493Z,8.35
2019-02-19T16:09:22.125Z,7.97
2019-02-19T16:12:02.118Z,7.42
2019-02-19T16:14:33.042Z,6.60
2019-02-19T16:17:12.940Z,9.43
2019-02-19T16:19:43.526Z,9.23
2019-02-19T16:22:14.635Z,8.35
2019-02-19T16:24:59.504Z,7.05
2019-02-19T16:27:44.324Z,6.92
2019-02-19T16:30:13.590Z,7.28
2019-02-19T16:32:42.665Z,8.48
2019-02-19T16:35:23.552Z,8.08
2019-02-19T16:37:52.011Z,8.63
2019-02-19T16:40:29.337Z,8.75
2019-02-19T16:43:13.240Z,8.80
2019-02-19T16:45:41.718Z,6.85
2019-02-19T16:48:22.513Z,11.10
2019-02-19T16:50:53.493Z,11.00
2019-02-19T16:53:21.833Z,9.80
2019-02-19T16:56:08.475Z,10.35
2019-02-19T16:58:36.772Z,10.72
2019-02-19T17:01:14.708Z,7.47
2019-02-19T17:03:49.016Z,9.08
2019-02-19T17:06:21.469Z,8.53
2019-02-19T17:08:52.592Z,10.45
2019-02-19T17:11:23.045Z,7.75
2019-02-19T17:13:58.154Z,11.68
2019-02-19T17:16:33.236Z,8.53
2019-02-19T17:19:04.157Z,10.28
2019-02-19T17:21:47.371Z,12.40
2019-02-19T17:24:18.489Z,11.65
2019-02-19T17:26:49.593Z,10.08
2019-02-19T17:29:32.770Z,11.35
2019-02-19T17:32:03.686Z,11.70
2019-02-19T17:34:40.497Z,13.03
2019-02-19T17:37:14.671Z,15.43
2019-02-19T17:39:45.525Z,10.00
2019-02-19T17:42:13.641Z,11.25
2019-02-19T17:44:50.813Z,7.70
2019-02-19T17:47:38.024Z,10.23
2019-02-19T17:50:25.897Z,11.25
2019-02-19T17:52:56.776Z,11.48
2019-02-19T17:55:42.020Z,12.43
2019-02-19T17:58:22.744Z,10.93
2019-02-19T18:01:06.872Z,11.12
2019-02-19T18:06:18.268Z,10.20
2019-02-19T18:08:46.353Z,9.65
2019-02-19T18:11:17.229Z,10.68
2019-02-19T18:13:45.358Z,12.90
2019-02-19T18:16:28.427Z,11.57
2019-02-19T18:18:54.789Z,8.25
2019-02-19T18:21:21.012Z,11.88
2019-02-19T18:23:47.225Z,8.55
2019-02-19T18:26:13.443Z,11.30
2019-02-19T18:28:40.754Z,13.62
2019-02-19T18:31:07.930Z,13.13
2019-02-19T18:33:34.124Z,12.70
2019-02-19T18:36:00.327Z,12.45
2019-02-19T18:38:27.636Z,12.53
2019-02-19T18:40:53.815Z,8.88
2019-02-19T18:43:20.119Z,15.68
2019-02-19T18:45:46.340Z,10.68
2019-02-19T18:48:12.511Z,13.13
2019-02-19T18:50:38.779Z,13.10
2019-02-19T18:53:05.326Z,14.18
2019-02-19T18:55:31.734Z,17.80
2019-02-19T18:57:58.100Z,14.18
2019-02-19T19:00:24.300Z,10.82
2019-02-19T19:02:50.469Z,12.60
2019-02-19T19:05:16.671Z,13.43
2019-02-19T19:07:43.074Z,14.28
2019-02-19T19:10:10.281Z,18.82
2019-02-19T19:12:36.590Z,15.13
2019-02-19T19:15:05.521Z,17.15
2019-02-19T19:17:33.404Z,14.78
2019-02-19T19:19:59.633Z,17.12
2019-02-19T19:22:25.824Z,15.25
2019-02-19T19:24:51.980Z,16.62
2019-02-19T19:27:18.224Z,20.80
2019-02-19T19:29:44.382Z,18.07
2019-02-19T19:32:11.556Z,17.27
2019-02-19T19:34:37.821Z,22.20
2019-02-19T19:37:04.025Z,32.28
2019-02-19T19:39:30.510Z,24.05
2019-02-19T19:41:56.675Z,19.62
2019-02-19T19:44:24.858Z,20.95
2019-02-19T19:46:50.938Z,21.82
2019-02-19T19:49:17.140Z,22.35
2019-02-19T19:51:43.311Z,20.20
2019-02-19T19:54:09.541Z,18.60
2019-02-19T19:56:35.832Z,20.43
2019-02-19T19:59:02.087Z,23.57
2019-02-19T20:01:28.450Z,21.23
2019-02-19T20:03:54.672Z,20.92
2019-02-19T20:06:20.875Z,22.80
2019-02-19T20:08:47.246Z,16.95
2019-02-19T20:11:14.947Z,22.20
2019-02-19T20:13:41.160Z,23.92
2019-02-19T20:16:07.363Z,22.60
2019-02-19T20:18:39.062Z,26.15
2019-02-19T20:21:02.950Z,25.15
2019-02-19T20:23:29.177Z,23.00
2019-02-19T20:25:55.436Z,19.60
2019-02-19T20:28:22.740Z,22.40
2019-02-19T20:30:49.083Z,24.77
2019-02-19T20:33:15.262Z,22.87
2019-02-19T20:35:41.777Z,25.45
2019-02-19T20:38:07.964Z,20.35
2019-02-19T20:40:35.253Z,25.27
2019-02-19T20:43:01.546Z,27.17
2019-02-19T20:45:27.922Z,24.70
2019-02-19T20:47:54.421Z,20.30
2019-02-19T20:50:20.621Z,25.62
2019-02-19T20:52:48.229Z,22.20
2019-02-19T20:55:14.700Z,26.05
2019-02-19T20:57:41.000Z,23.07
2019-02-19T21:00:15.999Z,28.40
2019-02-19T21:02:44.151Z,23.87
2019-02-19T21:05:10.694Z,24.15
2019-02-19T21:07:36.989Z,23.55
2019-02-19T21:10:10.231Z,26.12
2019-02-19T21:12:37.320Z,26.45
2019-02-19T21:15:04.857Z,28.02
2019-02-19T21:17:31.299Z,21.10
2019-02-19T21:19:58.630Z,24.70
2019-02-19T21:22:24.844Z,24.90
2019-02-19T21:24:51.287Z,32.70
2019-02-19T21:27:17.637Z,24.57
2019-02-19T21:29:44.058Z,22.50
2019-02-19T21:32:10.259Z,24.23
2019-02-19T21:34:36.424Z,23.67
2019-02-19T21:37:04.180Z,27.60
2019-02-19T21:39:30.390Z,23.52
2019-02-19T21:41:56.664Z,22.70
2019-02-19T21:44:22.913Z,25.85
2019-02-19T21:46:49.292Z,24.90
2019-02-19T21:49:15.492Z,26.97
2019-02-19T21:51:41.676Z,25.08
2019-02-19T21:54:07.838Z,27.10
2019-02-19T21:56:34.025Z,26.10
2019-02-19T21:59:00.397Z,34.30
2019-02-19T22:01:27.219Z,27.22
2019-02-19T22:03:53.489Z,25.17
2019-02-19T22:06:20.192Z,28.38
2019-02-19T22:08:47.500Z,27.10
2019-02-19T22:11:13.676Z,33.80
2019-02-19T22:13:39.860Z,23.73
2019-02-19T22:16:06.122Z,24.30
2019-02-19T22:18:32.408Z,22.95
2019-02-19T22:21:04.451Z,31.27
2019-02-19T22:23:30.651Z,28.55
2019-02-19T22:25:56.894Z,23.20
2019-02-19T22:28:24.060Z,25.77
2019-02-19T22:30:50.237Z,26.05
2019-02-19T22:33:19.336Z,25.20
2019-02-19T22:35:45.510Z,26.73
2019-02-19T22:38:11.692Z,23.02
2019-02-19T22:40:37.865Z,20.85
2019-02-19T22:43:05.810Z,25.12
2019-02-19T22:45:31.984Z,29.30
2019-02-19T22:47:58.211Z,26.10
2019-02-19T22:50:25.515Z,22.42
2019-02-19T22:52:51.729Z,23.10
2019-02-19T22:55:23.059Z,20.70
2019-02-19T22:57:49.258Z,23.25
2019-02-19T23:00:38.418Z,26.77
2019-02-19T23:03:06.482Z,24.75
2019-02-19T23:05:33.288Z,19.25
2019-02-19T23:07:59.470Z,18.90
2019-02-19T23:10:26.022Z,22.93
2019-02-19T23:12:52.223Z,24.05
2019-02-19T23:15:18.392Z,22.93
2019-02-19T23:17:44.591Z,21.02
2019-02-19T23:20:10.766Z,22.90
2019-02-19T23:22:36.973Z,23.77
2019-02-19T23:25:04.372Z,21.82
2019-02-19T23:27:30.962Z,23.22
2019-02-19T23:29:58.247Z,25.05
2019-02-19T23:32:44.407Z,27.40
2019-02-19T23:35:15.266Z,21.50
2019-02-19T23:37:41.468Z,21.65
2019-02-19T23:40:07.626Z,19.50
2019-02-19T23:42:33.801Z,23.80
2019-02-19T23:44:59.978Z,26.12
2019-02-19T23:47:26.154Z,25.55
2019-02-19T23:49:52.332Z,25.00
2019-02-19T23:52:18.525Z,24.80
2019-02-19T23:54:44.714Z,21.15
2019-02-19T23:57:10.872Z,20.50
2019-02-19T23:59:37.076Z,24.60
